Leiters Ford, Indiana
Current Conditions -  °F | °C
As of 8:15 PM on Friday 31 Oct 2014 (Local Time) from KRCR Reporting Station
Overcast Overcast  
Wind Chill: 25°   Ceiling: 3900
Heat Index: 36°   Visibility: 10mi
Dew Point: 32°   Wind: 21mph
Humidity: 87%   Direction: 350°N
Pressure: 30.16"   Gusts: 30mph
Location:  41.12°N, 86.39°W
Report Text: KRCR 010015Z AUTO 35018G26KT 10SM BKN039 OVC049 02/00 A3016 RMK AO2
Loading
Personal Weather Stations






























Interactive Weather Map
Tropical Storm Tracking
New forecast layout! Learn more

10-Day Weather Forecast

Advertisements
Track Severe Weather on mobile